sensor_id;sensor_type;location;lat;lon;timestamp;temperature;humidity
17813;DHT22;9030;50.792;8.320;2023-08-06T00:00:57;13.50;99.90
17813;DHT22;9030;50.792;8.320;2023-08-06T00:03:23;13.60;99.90
17813;DHT22;9030;50.792;8.320;2023-08-06T00:05:50;13.50;99.90
17813;DHT22;9030;50.792;8.320;2023-08-06T00:08:16;13.50;99.90
17813;DHT22;9030;50.792;8.320;2023-08-06T00:10:46;13.60;99.90
17813;DHT22;9030;50.792;8.320;2023-08-06T00:13:13;13.70;99.90
17813;DHT22;9030;50.792;8.320;2023-08-06T00:15:40;13.70;99.90
17813;DHT22;9030;50.792;8.320;2023-08-06T00:18:06;13.70;99.90
17813;DHT22;9030;50.792;8.320;2023-08-06T00:20:33;13.70;99.90
17813;DHT22;9030;50.792;8.320;2023-08-06T00:23:00;13.70;99.90
17813;DHT22;9030;50.792;8.320;2023-08-06T00:25:27;13.80;99.90
17813;DHT22;9030;50.792;8.320;2023-08-06T00:27:55;13.80;99.90
17813;DHT22;9030;50.792;8.320;2023-08-06T00:30:22;13.80;99.90
17813;DHT22;9030;50.792;8.320;2023-08-06T00:32:48;13.90;99.90
17813;DHT22;9030;50.792;8.320;2023-08-06T00:35:15;13.90;99.90
17813;DHT22;9030;50.792;8.320;2023-08-06T00:37:42;13.90;99.90
17813;DHT22;9030;50.792;8.320;2023-08-06T00:40:09;13.80;99.90
17813;DHT22;9030;50.792;8.320;2023-08-06T00:42:35;13.80;99.90
17813;DHT22;9030;50.792;8.320;2023-08-06T00:45:04;13.80;99.90
17813;DHT22;9030;50.792;8.320;2023-08-06T00:47:31;13.80;99.90
17813;DHT22;9030;50.792;8.320;2023-08-06T00:49:57;13.90;99.90
17813;DHT22;9030;50.792;8.320;2023-08-06T00:52:24;14.00;99.90
17813;DHT22;9030;50.792;8.320;2023-08-06T00:54:51;14.10;99.90
17813;DHT22;9030;50.792;8.320;2023-08-06T00:57:18;14.20;99.90
17813;DHT22;9030;50.792;8.320;2023-08-06T00:59:45;14.30;99.90
17813;DHT22;9030;50.792;8.320;2023-08-06T01:02:13;14.30;99.90
17813;DHT22;9030;50.792;8.320;2023-08-06T01:04:40;14.30;99.90
17813;DHT22;9030;50.792;8.320;2023-08-06T01:07:16;14.30;99.90
17813;DHT22;9030;50.792;8.320;2023-08-06T01:12:40;14.30;99.90
17813;DHT22;9030;50.792;8.320;2023-08-06T01:15:11;14.30;99.90
17813;DHT22;9030;50.792;8.320;2023-08-06T01:17:42;14.30;99.90
17813;DHT22;9030;50.792;8.320;2023-08-06T01:20:10;14.30;99.90
17813;DHT22;9030;50.792;8.320;2023-08-06T01:22:38;14.20;99.90
17813;DHT22;9030;50.792;8.320;2023-08-06T01:25:06;14.20;99.90
17813;DHT22;9030;50.792;8.320;2023-08-06T01:27:38;14.20;99.90
17813;DHT22;9030;50.792;8.320;2023-08-06T01:30:12;14.20;99.90
17813;DHT22;9030;50.792;8.320;2023-08-06T01:32:43;14.30;99.90
17813;DHT22;9030;50.792;8.320;2023-08-06T01:35:12;14.30;99.90
17813;DHT22;9030;50.792;8.320;2023-08-06T01:37:41;14.30;99.90
17813;DHT22;9030;50.792;8.320;2023-08-06T01:40:10;14.20;99.90
17813;DHT22;9030;50.792;8.320;2023-08-06T01:42:37;14.20;99.90
17813;DHT22;9030;50.792;8.320;2023-08-06T01:45:04;14.20;99.90
17813;DHT22;9030;50.792;8.320;2023-08-06T01:47:31;14.20;99.90
17813;DHT22;9030;50.792;8.320;2023-08-06T01:49:58;14.20;99.90
17813;DHT22;9030;50.792;8.320;2023-08-06T01:52:25;14.30;99.90
17813;DHT22;9030;50.792;8.320;2023-08-06T01:54:53;14.30;99.90
17813;DHT22;9030;50.792;8.320;2023-08-06T01:57:19;14.40;99.90
17813;DHT22;9030;50.792;8.320;2023-08-06T01:59:46;14.40;99.90
17813;DHT22;9030;50.792;8.320;2023-08-06T02:02:12;14.30;99.90
17813;DHT22;9030;50.792;8.320;2023-08-06T02:04:39;14.30;99.90
17813;DHT22;9030;50.792;8.320;2023-08-06T02:07:06;14.30;99.90
17813;DHT22;9030;50.792;8.320;2023-08-06T02:09:32;14.40;99.90
17813;DHT22;9030;50.792;8.320;2023-08-06T02:12:02;14.30;99.90
17813;DHT22;9030;50.792;8.320;2023-08-06T02:14:29;14.30;99.90
17813;DHT22;9030;50.792;8.320;2023-08-06T02:16:55;14.30;99.90
17813;DHT22;9030;50.792;8.320;2023-08-06T02:19:22;14.30;99.90
17813;DHT22;9030;50.792;8.320;2023-08-06T02:21:49;14.30;99.90
17813;DHT22;9030;50.792;8.320;2023-08-06T02:24:16;14.30;99.90
17813;DHT22;9030;50.792;8.320;2023-08-06T02:26:42;14.30;99.90
17813;DHT22;9030;50.792;8.320;2023-08-06T02:29:10;14.30;99.90
17813;DHT22;9030;50.792;8.320;2023-08-06T02:31:37;14.30;99.90
17813;DHT22;9030;50.792;8.320;2023-08-06T02:34:03;14.30;99.90
17813;DHT22;9030;50.792;8.320;2023-08-06T02:36:30;14.20;99.90
17813;DHT22;9030;50.792;8.320;2023-08-06T02:38:57;14.30;99.90
17813;DHT22;9030;50.792;8.320;2023-08-06T02:41:23;14.30;99.90
17813;DHT22;9030;50.792;8.320;2023-08-06T02:43:50;14.30;99.90
17813;DHT22;9030;50.792;8.320;2023-08-06T02:46:18;14.30;99.90
17813;DHT22;9030;50.792;8.320;2023-08-06T02:48:45;14.30;99.90
17813;DHT22;9030;50.792;8.320;2023-08-06T02:51:11;14.20;99.90
17813;DHT22;9030;50.792;8.320;2023-08-06T02:53:38;14.20;99.90
17813;DHT22;9030;50.792;8.320;2023-08-06T02:56:05;14.20;99.90
17813;DHT22;9030;50.792;8.320;2023-08-06T02:58:31;14.20;99.90
17813;DHT22;9030;50.792;8.320;2023-08-06T03:01:02;14.20;99.90
17813;DHT22;9030;50.792;8.320;2023-08-06T03:03:30;14.20;99.90
17813;DHT22;9030;50.792;8.320;2023-08-06T03:05:57;14.20;99.90
17813;DHT22;9030;50.792;8.320;2023-08-06T03:08:24;14.20;99.90
17813;DHT22;9030;50.792;8.320;2023-08-06T03:10:52;14.10;99.90
17813;DHT22;9030;50.792;8.320;2023-08-06T03:13:19;14.10;99.90
17813;DHT22;9030;50.792;8.320;2023-08-06T03:15:52;14.10;99.90
17813;DHT22;9030;50.792;8.320;2023-08-06T03:18:19;14.00;99.90
17813;DHT22;9030;50.792;8.320;2023-08-06T03:20:47;14.00;99.90
17813;DHT22;9030;50.792;8.320;2023-08-06T03:23:13;13.90;99.90
17813;DHT22;9030;50.792;8.320;2023-08-06T03:25:40;13.90;99.90
17813;DHT22;9030;50.792;8.320;2023-08-06T03:28:07;13.90;99.90
17813;DHT22;9030;50.792;8.320;2023-08-06T03:30:33;13.80;99.90
17813;DHT22;9030;50.792;8.320;2023-08-06T03:33:00;13.80;99.90
17813;DHT22;9030;50.792;8.320;2023-08-06T03:35:27;13.90;99.90
17813;DHT22;9030;50.792;8.320;2023-08-06T03:37:55;13.90;99.90
17813;DHT22;9030;50.792;8.320;2023-08-06T03:40:21;13.90;99.90
17813;DHT22;9030;50.792;8.320;2023-08-06T03:42:48;13.90;99.90
17813;DHT22;9030;50.792;8.320;2023-08-06T03:45:15;13.90;99.90
17813;DHT22;9030;50.792;8.320;2023-08-06T03:47:41;14.00;99.90
17813;DHT22;9030;50.792;8.320;2023-08-06T03:50:08;13.90;99.90
17813;DHT22;9030;50.792;8.320;2023-08-06T03:52:35;13.90;99.90
17813;DHT22;9030;50.792;8.320;2023-08-06T03:55:04;13.80;99.90
17813;DHT22;9030;50.792;8.320;2023-08-06T03:57:30;13.80;99.90
17813;DHT22;9030;50.792;8.320;2023-08-06T03:59:57;13.80;99.90
17813;DHT22;9030;50.792;8.320;2023-08-06T04:02:23;13.90;99.90
17813;DHT22;9030;50.792;8.320;2023-08-06T04:04:50;13.90;99.90
17813;DHT22;9030;50.792;8.320;2023-08-06T04:07:18;13.90;99.90
17813;DHT22;9030;50.792;8.320;2023-08-06T04:09:57;13.90;99.90
17813;DHT22;9030;50.792;8.320;2023-08-06T04:12:25;13.80;99.90
17813;DHT22;9030;50.792;8.320;2023-08-06T04:14:53;13.80;99.90
17813;DHT22;9030;50.792;8.320;2023-08-06T04:17:20;13.70;99.90
17813;DHT22;9030;50.792;8.320;2023-08-06T04:19:47;13.70;99.90
17813;DHT22;9030;50.792;8.320;2023-08-06T04:22:14;13.80;99.90
17813;DHT22;9030;50.792;8.320;2023-08-06T04:24:41;13.80;99.90
17813;DHT22;9030;50.792;8.320;2023-08-06T04:27:08;13.80;99.90
17813;DHT22;9030;50.792;8.320;2023-08-06T04:29:36;13.90;99.90
17813;DHT22;9030;50.792;8.320;2023-08-06T04:32:04;13.90;99.90
17813;DHT22;9030;50.792;8.320;2023-08-06T04:34:31;13.90;99.90
17813;DHT22;9030;50.792;8.320;2023-08-06T04:36:58;14.00;99.90
17813;DHT22;9030;50.792;8.320;2023-08-06T04:39:25;14.00;99.90
17813;DHT22;9030;50.792;8.320;2023-08-06T04:41:51;14.00;99.90
17813;DHT22;9030;50.792;8.320;2023-08-06T04:44:18;14.10;99.90
17813;DHT22;9030;50.792;8.320;2023-08-06T04:46:46;14.10;99.90
17813;DHT22;9030;50.792;8.320;2023-08-06T04:49:12;14.10;99.90
17813;DHT22;9030;50.792;8.320;2023-08-06T04:51:39;14.10;99.90
17813;DHT22;9030;50.792;8.320;2023-08-06T04:54:06;14.20;99.90
17813;DHT22;9030;50.792;8.320;2023-08-06T04:56:32;14.20;99.90
17813;DHT22;9030;50.792;8.320;2023-08-06T04:58:59;14.20;99.90
17813;DHT22;9030;50.792;8.320;2023-08-06T05:01:26;14.20;99.90
17813;DHT22;9030;50.792;8.320;2023-08-06T05:03:55;14.10;99.90
17813;DHT22;9030;50.792;8.320;2023-08-06T05:06:21;14.20;99.90
17813;DHT22;9030;50.792;8.320;2023-08-06T05:08:48;14.20;99.90
17813;DHT22;9030;50.792;8.320;2023-08-06T05:11:15;14.20;99.90
17813;DHT22;9030;50.792;8.320;2023-08-06T05:13:41;14.20;99.90
17813;DHT22;9030;50.792;8.320;2023-08-06T05:16:08;14.30;99.90
17813;DHT22;9030;50.792;8.320;2023-08-06T05:18:35;14.30;99.90
17813;DHT22;9030;50.792;8.320;2023-08-06T05:21:04;14.40;99.90
17813;DHT22;9030;50.792;8.320;2023-08-06T05:23:31;14.50;99.90
17813;DHT22;9030;50.792;8.320;2023-08-06T05:25:57;14.60;99.90
17813;DHT22;9030;50.792;8.320;2023-08-06T05:28:24;14.90;99.90
17813;DHT22;9030;50.792;8.320;2023-08-06T05:30:50;15.20;99.90
17813;DHT22;9030;50.792;8.320;2023-08-06T05:33:17;15.60;99.90
17813;DHT22;9030;50.792;8.320;2023-08-06T05:35:44;15.90;99.90
17813;DHT22;9030;50.792;8.320;2023-08-06T05:38:12;16.30;99.90
17813;DHT22;9030;50.792;8.320;2023-08-06T05:40:38;16.50;99.90
17813;DHT22;9030;50.792;8.320;2023-08-06T05:43:05;16.60;99.90
17813;DHT22;9030;50.792;8.320;2023-08-06T05:45:31;16.50;99.90
17813;DHT22;9030;50.792;8.320;2023-08-06T05:47:58;16.30;99.90
17813;DHT22;9030;50.792;8.320;2023-08-06T05:50:25;16.10;99.90
17813;DHT22;9030;50.792;8.320;2023-08-06T05:52:51;16.00;99.90
17813;DHT22;9030;50.792;8.320;2023-08-06T05:55:20;16.00;99.90
17813;DHT22;9030;50.792;8.320;2023-08-06T05:57:46;15.80;99.90
17813;DHT22;9030;50.792;8.320;2023-08-06T06:00:13;15.60;99.90
17813;DHT22;9030;50.792;8.320;2023-08-06T06:02:40;15.50;99.90
17813;DHT22;9030;50.792;8.320;2023-08-06T06:05:07;15.40;99.90
17813;DHT22;9030;50.792;8.320;2023-08-06T06:07:34;15.20;99.90
17813;DHT22;9030;50.792;8.320;2023-08-06T06:10:01;15.20;99.90
17813;DHT22;9030;50.792;8.320;2023-08-06T06:12:29;15.20;99.90
17813;DHT22;9030;50.792;8.320;2023-08-06T06:14:56;15.30;99.90
17813;DHT22;9030;50.792;8.320;2023-08-06T06:17:22;15.30;99.90
17813;DHT22;9030;50.792;8.320;2023-08-06T06:19:49;15.40;99.90
17813;DHT22;9030;50.792;8.320;2023-08-06T06:22:16;15.40;99.90
17813;DHT22;9030;50.792;8.320;2023-08-06T06:24:42;15.50;99.90
17813;DHT22;9030;50.792;8.320;2023-08-06T06:27:09;15.50;99.90
17813;DHT22;9030;50.792;8.320;2023-08-06T06:29:37;15.60;99.90
17813;DHT22;9030;50.792;8.320;2023-08-06T06:32:04;15.60;99.90
17813;DHT22;9030;50.792;8.320;2023-08-06T06:34:30;15.60;99.90
17813;DHT22;9030;50.792;8.320;2023-08-06T06:36:57;15.70;99.90
17813;DHT22;9030;50.792;8.320;2023-08-06T06:39:24;15.70;99.90
17813;DHT22;9030;50.792;8.320;2023-08-06T06:41:50;15.70;99.90
17813;DHT22;9030;50.792;8.320;2023-08-06T06:44:17;15.60;99.90
17813;DHT22;9030;50.792;8.320;2023-08-06T06:46:46;15.50;99.90
17813;DHT22;9030;50.792;8.320;2023-08-06T06:49:13;15.60;99.90
17813;DHT22;9030;50.792;8.320;2023-08-06T06:51:40;15.70;99.90
17813;DHT22;9030;50.792;8.320;2023-08-06T06:54:06;15.70;99.90
17813;DHT22;9030;50.792;8.320;2023-08-06T06:56:33;15.80;99.90
17813;DHT22;9030;50.792;8.320;2023-08-06T06:59:00;15.80;99.90
17813;DHT22;9030;50.792;8.320;2023-08-06T07:01:26;15.80;99.90
17813;DHT22;9030;50.792;8.320;2023-08-06T07:03:54;16.00;99.90
17813;DHT22;9030;50.792;8.320;2023-08-06T07:06:21;16.00;99.90
17813;DHT22;9030;50.792;8.320;2023-08-06T07:08:47;16.10;99.90
17813;DHT22;9030;50.792;8.320;2023-08-06T07:11:14;16.10;99.90
17813;DHT22;9030;50.792;8.320;2023-08-06T07:13:41;16.00;99.90
17813;DHT22;9030;50.792;8.320;2023-08-06T07:16:07;15.90;99.90
17813;DHT22;9030;50.792;8.320;2023-08-06T07:18:34;15.80;99.90
17813;DHT22;9030;50.792;8.320;2023-08-06T07:21:02;15.80;99.90
17813;DHT22;9030;50.792;8.320;2023-08-06T07:23:28;15.90;99.90
17813;DHT22;9030;50.792;8.320;2023-08-06T07:25:55;16.10;99.90
17813;DHT22;9030;50.792;8.320;2023-08-06T07:28:22;16.00;99.90
17813;DHT22;9030;50.792;8.320;2023-08-06T07:30:48;15.90;99.90
17813;DHT22;9030;50.792;8.320;2023-08-06T07:33:15;16.00;99.90
17813;DHT22;9030;50.792;8.320;2023-08-06T07:35:42;15.90;99.90
17813;DHT22;9030;50.792;8.320;2023-08-06T07:38:10;16.00;99.90
17813;DHT22;9030;50.792;8.320;2023-08-06T07:40:38;16.20;99.90
17813;DHT22;9030;50.792;8.320;2023-08-06T07:43:04;16.20;99.90
17813;DHT22;9030;50.792;8.320;2023-08-06T07:45:33;16.30;99.90
17813;DHT22;9030;50.792;8.320;2023-08-06T07:48:00;16.20;99.90
17813;DHT22;9030;50.792;8.320;2023-08-06T07:50:26;16.50;99.90
17813;DHT22;9030;50.792;8.320;2023-08-06T07:52:53;16.50;99.90
17813;DHT22;9030;50.792;8.320;2023-08-06T07:55:21;16.60;99.90
17813;DHT22;9030;50.792;8.320;2023-08-06T07:57:48;16.60;99.90
17813;DHT22;9030;50.792;8.320;2023-08-06T08:00:14;16.50;99.90
17813;DHT22;9030;50.792;8.320;2023-08-06T08:02:41;16.30;99.90
17813;DHT22;9030;50.792;8.320;2023-08-06T08:05:08;16.50;99.90
17813;DHT22;9030;50.792;8.320;2023-08-06T08:07:34;16.50;99.90
17813;DHT22;9030;50.792;8.320;2023-08-06T08:10:01;17.00;99.90
17813;DHT22;9030;50.792;8.320;2023-08-06T08:12:30;17.80;99.90
17813;DHT22;9030;50.792;8.320;2023-08-06T08:14:56;18.40;99.90
17813;DHT22;9030;50.792;8.320;2023-08-06T08:17:23;19.10;99.90
17813;DHT22;9030;50.792;8.320;2023-08-06T08:19:49;19.20;99.90
17813;DHT22;9030;50.792;8.320;2023-08-06T08:22:16;19.30;99.90
17813;DHT22;9030;50.792;8.320;2023-08-06T08:24:43;19.10;99.90
17813;DHT22;9030;50.792;8.320;2023-08-06T08:27:09;19.00;99.90
17813;DHT22;9030;50.792;8.320;2023-08-06T08:29:37;19.40;99.90
17813;DHT22;9030;50.792;8.320;2023-08-06T08:32:04;19.60;99.90
17813;DHT22;9030;50.792;8.320;2023-08-06T08:34:31;19.60;99.90
17813;DHT22;9030;50.792;8.320;2023-08-06T08:36:58;19.80;99.90
17813;DHT22;9030;50.792;8.320;2023-08-06T08:39:24;19.60;99.90
17813;DHT22;9030;50.792;8.320;2023-08-06T08:41:52;19.60;99.90
17813;DHT22;9030;50.792;8.320;2023-08-06T08:44:19;19.40;99.90
17813;DHT22;9030;50.792;8.320;2023-08-06T08:46:47;18.50;99.90
17813;DHT22;9030;50.792;8.320;2023-08-06T08:49:14;18.30;99.90
17813;DHT22;9030;50.792;8.320;2023-08-06T08:51:41;18.00;99.90
17813;DHT22;9030;50.792;8.320;2023-08-06T08:54:12;17.90;99.90
17813;DHT22;9030;50.792;8.320;2023-08-06T08:56:39;17.80;99.90
17813;DHT22;9030;50.792;8.320;2023-08-06T08:59:06;17.70;99.90
17813;DHT22;9030;50.792;8.320;2023-08-06T09:01:33;17.60;99.90
17813;DHT22;9030;50.792;8.320;2023-08-06T09:04:02;17.50;99.90
17813;DHT22;9030;50.792;8.320;2023-08-06T09:06:30;17.00;99.90
17813;DHT22;9030;50.792;8.320;2023-08-06T09:09:04;16.70;99.90
17813;DHT22;9030;50.792;8.320;2023-08-06T09:11:43;16.40;99.90
17813;DHT22;9030;50.792;8.320;2023-08-06T09:14:11;16.40;99.90
17813;DHT22;9030;50.792;8.320;2023-08-06T09:16:38;16.60;99.90
17813;DHT22;9030;50.792;8.320;2023-08-06T09:19:09;16.70;99.90
17813;DHT22;9030;50.792;8.320;2023-08-06T09:21:38;16.80;99.90
17813;DHT22;9030;50.792;8.320;2023-08-06T09:24:07;16.80;99.90
17813;DHT22;9030;50.792;8.320;2023-08-06T09:26:34;16.80;99.90
17813;DHT22;9030;50.792;8.320;2023-08-06T09:29:01;16.90;99.90
17813;DHT22;9030;50.792;8.320;2023-08-06T09:31:32;16.80;99.90
17813;DHT22;9030;50.792;8.320;2023-08-06T09:34:00;16.60;99.90
17813;DHT22;9030;50.792;8.320;2023-08-06T09:36:28;16.60;99.90
17813;DHT22;9030;50.792;8.320;2023-08-06T09:38:54;16.60;99.90
17813;DHT22;9030;50.792;8.320;2023-08-06T09:41:26;16.70;99.90
17813;DHT22;9030;50.792;8.320;2023-08-06T09:43:54;16.50;99.90
17813;DHT22;9030;50.792;8.320;2023-08-06T09:46:20;16.60;99.90
17813;DHT22;9030;50.792;8.320;2023-08-06T09:48:48;16.40;99.90
17813;DHT22;9030;50.792;8.320;2023-08-06T09:51:15;16.20;99.90
17813;DHT22;9030;50.792;8.320;2023-08-06T09:53:44;16.10;99.90
17813;DHT22;9030;50.792;8.320;2023-08-06T09:56:13;16.00;99.90
17813;DHT22;9030;50.792;8.320;2023-08-06T09:58:41;16.00;99.90
17813;DHT22;9030;50.792;8.320;2023-08-06T10:01:08;16.30;99.90
17813;DHT22;9030;50.792;8.320;2023-08-06T10:03:35;16.40;99.90
17813;DHT22;9030;50.792;8.320;2023-08-06T10:06:03;16.50;99.90
17813;DHT22;9030;50.792;8.320;2023-08-06T10:08:32;16.80;99.90
17813;DHT22;9030;50.792;8.320;2023-08-06T10:11:02;16.90;99.90
17813;DHT22;9030;50.792;8.320;2023-08-06T10:13:31;17.10;99.90
17813;DHT22;9030;50.792;8.320;2023-08-06T10:15:59;17.00;99.90
17813;DHT22;9030;50.792;8.320;2023-08-06T10:18:26;17.20;99.90
17813;DHT22;9030;50.792;8.320;2023-08-06T10:20:54;17.10;99.90
17813;DHT22;9030;50.792;8.320;2023-08-06T10:23:33;17.40;99.90
17813;DHT22;9030;50.792;8.320;2023-08-06T10:26:01;17.50;99.90
17813;DHT22;9030;50.792;8.320;2023-08-06T10:28:34;17.60;99.90
17813;DHT22;9030;50.792;8.320;2023-08-06T10:31:00;17.50;99.90
17813;DHT22;9030;50.792;8.320;2023-08-06T10:33:40;17.10;99.90
17813;DHT22;9030;50.792;8.320;2023-08-06T10:36:08;17.00;99.90
17813;DHT22;9030;50.792;8.320;2023-08-06T10:38:36;16.80;99.90
17813;DHT22;9030;50.792;8.320;2023-08-06T10:41:15;16.50;99.90
17813;DHT22;9030;50.792;8.320;2023-08-06T10:43:43;16.50;99.90
17813;DHT22;9030;50.792;8.320;2023-08-06T10:46:12;16.40;99.90
17813;DHT22;9030;50.792;8.320;2023-08-06T10:48:46;16.50;99.90
17813;DHT22;9030;50.792;8.320;2023-08-06T10:51:14;16.80;99.90
17813;DHT22;9030;50.792;8.320;2023-08-06T10:53:43;17.10;99.90
17813;DHT22;9030;50.792;8.320;2023-08-06T10:56:13;17.60;99.90
17813;DHT22;9030;50.792;8.320;2023-08-06T10:58:40;18.30;99.90
17813;DHT22;9030;50.792;8.320;2023-08-06T11:01:07;18.80;99.90
17813;DHT22;9030;50.792;8.320;2023-08-06T11:03:34;19.40;99.90
17813;DHT22;9030;50.792;8.320;2023-08-06T11:06:01;19.50;99.90
17813;DHT22;9030;50.792;8.320;2023-08-06T11:08:35;19.70;99.90
17813;DHT22;9030;50.792;8.320;2023-08-06T11:11:08;19.80;99.90
17813;DHT22;9030;50.792;8.320;2023-08-06T11:13:37;19.30;99.90
17813;DHT22;9030;50.792;8.320;2023-08-06T11:16:05;19.10;99.90
17813;DHT22;9030;50.792;8.320;2023-08-06T11:18:32;19.20;99.90
17813;DHT22;9030;50.792;8.320;2023-08-06T11:20:59;18.90;99.90
17813;DHT22;9030;50.792;8.320;2023-08-06T11:23:26;18.70;99.90
17813;DHT22;9030;50.792;8.320;2023-08-06T11:25:53;18.90;99.90
17813;DHT22;9030;50.792;8.320;2023-08-06T11:28:20;19.40;99.90
17813;DHT22;9030;50.792;8.320;2023-08-06T11:30:48;20.00;99.90
17813;DHT22;9030;50.792;8.320;2023-08-06T11:33:20;20.10;99.90
17813;DHT22;9030;50.792;8.320;2023-08-06T11:35:47;19.50;99.90
17813;DHT22;9030;50.792;8.320;2023-08-06T11:38:14;18.70;99.90
17813;DHT22;9030;50.792;8.320;2023-08-06T11:40:43;18.10;99.90
17813;DHT22;9030;50.792;8.320;2023-08-06T11:43:10;18.20;99.90
17813;DHT22;9030;50.792;8.320;2023-08-06T11:45:37;19.30;99.90
17813;DHT22;9030;50.792;8.320;2023-08-06T11:48:05;20.00;99.90
17813;DHT22;9030;50.792;8.320;2023-08-06T11:50:35;20.60;99.90
17813;DHT22;9030;50.792;8.320;2023-08-06T11:53:02;20.70;99.90
17813;DHT22;9030;50.792;8.320;2023-08-06T11:55:29;20.60;99.90
17813;DHT22;9030;50.792;8.320;2023-08-06T11:57:56;20.10;99.90
17813;DHT22;9030;50.792;8.320;2023-08-06T12:00:24;19.70;99.90
17813;DHT22;9030;50.792;8.320;2023-08-06T12:02:52;19.40;99.90
17813;DHT22;9030;50.792;8.320;2023-08-06T12:05:22;19.00;99.90
17813;DHT22;9030;50.792;8.320;2023-08-06T12:07:51;18.70;99.90
17813;DHT22;9030;50.792;8.320;2023-08-06T12:10:18;18.80;99.90
17813;DHT22;9030;50.792;8.320;2023-08-06T12:12:46;19.00;99.90
17813;DHT22;9030;50.792;8.320;2023-08-06T12:15:13;19.20;99.90
17813;DHT22;9030;50.792;8.320;2023-08-06T12:17:40;18.90;99.90
17813;DHT22;9030;50.792;8.320;2023-08-06T12:20:07;18.70;99.90
17813;DHT22;9030;50.792;8.320;2023-08-06T12:22:36;18.00;99.90
17813;DHT22;9030;50.792;8.320;2023-08-06T12:25:06;17.90;99.90
17813;DHT22;9030;50.792;8.320;2023-08-06T12:27:33;17.70;99.90
17813;DHT22;9030;50.792;8.320;2023-08-06T12:30:00;17.10;99.90
17813;DHT22;9030;50.792;8.320;2023-08-06T12:32:26;16.60;99.90
17813;DHT22;9030;50.792;8.320;2023-08-06T12:34:53;16.50;99.90
17813;DHT22;9030;50.792;8.320;2023-08-06T12:37:20;16.50;99.90
17813;DHT22;9030;50.792;8.320;2023-08-06T12:39:48;16.20;99.90
17813;DHT22;9030;50.792;8.320;2023-08-06T12:42:14;16.10;99.90
17813;DHT22;9030;50.792;8.320;2023-08-06T12:44:41;15.80;99.90
17813;DHT22;9030;50.792;8.320;2023-08-06T12:47:08;15.80;99.90
17813;DHT22;9030;50.792;8.320;2023-08-06T12:49:35;16.00;99.90
17813;DHT22;9030;50.792;8.320;2023-08-06T12:52:01;16.20;99.90
17813;DHT22;9030;50.792;8.320;2023-08-06T12:54:31;16.40;99.90
17813;DHT22;9030;50.792;8.320;2023-08-06T12:57:03;16.30;99.90
17813;DHT22;9030;50.792;8.320;2023-08-06T12:59:30;16.30;99.90
17813;DHT22;9030;50.792;8.320;2023-08-06T13:01:58;16.40;99.90
17813;DHT22;9030;50.792;8.320;2023-08-06T13:04:25;16.20;99.90
17813;DHT22;9030;50.792;8.320;2023-08-06T13:06:53;16.00;99.90
17813;DHT22;9030;50.792;8.320;2023-08-06T13:09:19;15.80;99.90
17813;DHT22;9030;50.792;8.320;2023-08-06T13:11:46;15.50;99.90
17813;DHT22;9030;50.792;8.320;2023-08-06T13:14:17;15.50;99.90
17813;DHT22;9030;50.792;8.320;2023-08-06T13:16:44;15.30;99.90
17813;DHT22;9030;50.792;8.320;2023-08-06T13:19:11;15.40;99.90
17813;DHT22;9030;50.792;8.320;2023-08-06T13:21:59;15.50;99.90
17813;DHT22;9030;50.792;8.320;2023-08-06T13:24:26;14.90;99.90
17813;DHT22;9030;50.792;8.320;2023-08-06T13:26:53;14.60;99.90
17813;DHT22;9030;50.792;8.320;2023-08-06T13:29:21;14.70;99.90
17813;DHT22;9030;50.792;8.320;2023-08-06T13:31:48;14.70;99.90
17813;DHT22;9030;50.792;8.320;2023-08-06T13:34:15;14.90;99.90
17813;DHT22;9030;50.792;8.320;2023-08-06T13:36:42;14.80;99.90
17813;DHT22;9030;50.792;8.320;2023-08-06T13:39:08;14.60;99.90
17813;DHT22;9030;50.792;8.320;2023-08-06T13:41:35;14.80;99.90
17813;DHT22;9030;50.792;8.320;2023-08-06T13:44:02;14.60;99.90
17813;DHT22;9030;50.792;8.320;2023-08-06T13:46:30;14.80;99.90
17813;DHT22;9030;50.792;8.320;2023-08-06T13:48:56;14.90;99.90
17813;DHT22;9030;50.792;8.320;2023-08-06T13:51:23;14.80;99.90
17813;DHT22;9030;50.792;8.320;2023-08-06T13:53:49;14.70;99.90
17813;DHT22;9030;50.792;8.320;2023-08-06T13:56:17;14.80;99.90
17813;DHT22;9030;50.792;8.320;2023-08-06T13:58:44;15.00;99.90
17813;DHT22;9030;50.792;8.320;2023-08-06T14:01:11;14.90;99.90
17813;DHT22;9030;50.792;8.320;2023-08-06T14:03:39;14.60;99.90
17813;DHT22;9030;50.792;8.320;2023-08-06T14:06:06;14.60;99.90
17813;DHT22;9030;50.792;8.320;2023-08-06T14:08:33;14.50;99.90
17813;DHT22;9030;50.792;8.320;2023-08-06T14:10:59;14.60;99.90
17813;DHT22;9030;50.792;8.320;2023-08-06T14:13:26;14.70;99.90
17813;DHT22;9030;50.792;8.320;2023-08-06T14:15:53;14.80;99.90
17813;DHT22;9030;50.792;8.320;2023-08-06T14:18:19;14.50;99.90
17813;DHT22;9030;50.792;8.320;2023-08-06T14:20:47;14.60;99.90
17813;DHT22;9030;50.792;8.320;2023-08-06T14:23:14;14.80;99.90
17813;DHT22;9030;50.792;8.320;2023-08-06T14:25:41;14.70;99.90
17813;DHT22;9030;50.792;8.320;2023-08-06T14:28:07;14.90;99.90
17813;DHT22;9030;50.792;8.320;2023-08-06T14:30:36;14.90;99.90
17813;DHT22;9030;50.792;8.320;2023-08-06T14:33:03;14.80;99.90
17813;DHT22;9030;50.792;8.320;2023-08-06T14:35:29;14.80;99.90
17813;DHT22;9030;50.792;8.320;2023-08-06T14:37:57;15.00;99.90
17813;DHT22;9030;50.792;8.320;2023-08-06T14:40:24;14.90;99.90
17813;DHT22;9030;50.792;8.320;2023-08-06T14:42:53;14.90;99.90
17813;DHT22;9030;50.792;8.320;2023-08-06T14:45:20;14.80;99.90
17813;DHT22;9030;50.792;8.320;2023-08-06T14:47:47;14.70;99.90
17813;DHT22;9030;50.792;8.320;2023-08-06T14:50:13;14.70;99.90
17813;DHT22;9030;50.792;8.320;2023-08-06T14:52:40;14.60;99.90
17813;DHT22;9030;50.792;8.320;2023-08-06T14:55:08;14.80;99.90
17813;DHT22;9030;50.792;8.320;2023-08-06T14:57:35;14.80;99.90
17813;DHT22;9030;50.792;8.320;2023-08-06T15:00:02;14.80;99.90
17813;DHT22;9030;50.792;8.320;2023-08-06T15:02:29;14.80;99.90
17813;DHT22;9030;50.792;8.320;2023-08-06T15:04:56;14.80;99.90
17813;DHT22;9030;50.792;8.320;2023-08-06T15:07:22;14.70;99.90
17813;DHT22;9030;50.792;8.320;2023-08-06T15:09:49;14.60;99.90
17813;DHT22;9030;50.792;8.320;2023-08-06T15:12:17;14.80;99.90
17813;DHT22;9030;50.792;8.320;2023-08-06T15:14:45;14.80;99.90
17813;DHT22;9030;50.792;8.320;2023-08-06T15:17:12;14.70;99.90
17813;DHT22;9030;50.792;8.320;2023-08-06T15:19:38;14.70;99.90
17813;DHT22;9030;50.792;8.320;2023-08-06T15:22:05;14.60;99.90
17813;DHT22;9030;50.792;8.320;2023-08-06T15:24:32;14.60;99.90
17813;DHT22;9030;50.792;8.320;2023-08-06T15:26:59;14.70;99.90
17813;DHT22;9030;50.792;8.320;2023-08-06T15:29:27;14.80;99.90
17813;DHT22;9030;50.792;8.320;2023-08-06T15:31:53;14.90;99.90
17813;DHT22;9030;50.792;8.320;2023-08-06T15:34:20;15.10;99.90
17813;DHT22;9030;50.792;8.320;2023-08-06T15:36:47;14.90;99.90
17813;DHT22;9030;50.792;8.320;2023-08-06T15:39:13;14.80;99.90
17813;DHT22;9030;50.792;8.320;2023-08-06T15:41:40;14.90;99.90
17813;DHT22;9030;50.792;8.320;2023-08-06T15:44:06;14.90;99.90
17813;DHT22;9030;50.792;8.320;2023-08-06T15:46:34;14.80;99.90
17813;DHT22;9030;50.792;8.320;2023-08-06T15:49:02;14.70;99.90